createdAt,value
2023-04-16T00:00:07.890Z,16.10
2023-04-16T00:02:41.658Z,14.23
2023-04-16T00:05:11.166Z,14.05
2023-04-16T00:07:39.389Z,12.90
2023-04-16T00:10:07.751Z,16.10
2023-04-16T00:12:36.508Z,14.07
2023-04-16T00:15:04.348Z,11.43
2023-04-16T00:17:32.500Z,14.43
2023-04-16T00:20:00.236Z,12.02
2023-04-16T00:22:29.335Z,14.75
2023-04-16T00:24:57.016Z,14.48
2023-04-16T00:27:24.954Z,15.25
2023-04-16T00:29:52.761Z,13.80
2023-04-16T00:32:20.614Z,12.40
2023-04-16T00:34:48.693Z,16.45
2023-04-16T00:37:16.476Z,12.60
2023-04-16T00:39:45.742Z,14.70
2023-04-16T00:42:13.456Z,16.52
2023-04-16T00:44:41.142Z,14.30
2023-04-16T00:47:09.073Z,15.40
2023-04-16T00:49:37.006Z,14.30
2023-04-16T00:52:05.040Z,13.75
2023-04-16T00:54:32.802Z,13.80
2023-04-16T00:57:02.200Z,16.00
2023-04-16T00:59:31.980Z,17.55
2023-04-16T01:01:59.778Z,14.73
2023-04-16T01:04:27.638Z,15.52
2023-04-16T01:06:55.514Z,18.08
2023-04-16T01:09:23.291Z,14.68
2023-04-16T01:11:50.982Z,15.43
2023-04-16T01:14:20.490Z,15.65
2023-04-16T01:16:48.848Z,13.70
2023-04-16T01:19:16.503Z,13.70
2023-04-16T01:21:45.607Z,16.63
2023-04-16T01:24:13.464Z,13.27
2023-04-16T01:26:41.284Z,13.02
2023-04-16T01:29:11.254Z,15.20
2023-04-16T01:31:39.157Z,14.70
2023-04-16T01:34:32.937Z,15.02
2023-04-16T01:37:02.267Z,15.50
2023-04-16T01:39:30.431Z,17.70
2023-04-16T01:41:59.076Z,19.17
2023-04-16T01:44:27.942Z,14.48
2023-04-16T01:46:55.955Z,17.08
2023-04-16T01:49:24.483Z,16.90
2023-04-16T01:51:53.061Z,14.52
2023-04-16T01:54:22.335Z,14.27
2023-04-16T01:56:50.755Z,16.00
2023-04-16T01:59:18.992Z,14.35
2023-04-16T02:01:47.926Z,13.25
2023-04-16T02:04:16.012Z,15.68
2023-04-16T02:06:44.561Z,14.48
2023-04-16T02:12:59.195Z,15.30
2023-04-16T02:15:26.989Z,17.05
2023-04-16T02:17:57.037Z,14.88
2023-04-16T02:20:26.347Z,16.50
2023-04-16T02:22:58.433Z,15.90
2023-04-16T02:25:26.153Z,13.10
2023-04-16T02:27:56.323Z,15.65
2023-04-16T02:30:33.873Z,13.23
2023-04-16T02:33:03.721Z,14.85
2023-04-16T02:35:31.505Z,13.68
2023-04-16T02:37:59.307Z,15.65
2023-04-16T02:40:27.419Z,16.98
2023-04-16T02:42:55.597Z,17.15
2023-04-16T02:45:23.626Z,14.25
2023-04-16T02:47:52.648Z,14.68
2023-04-16T02:50:20.514Z,14.40
2023-04-16T02:52:48.639Z,15.07
2023-04-16T02:55:16.503Z,12.80
2023-04-16T02:57:44.141Z,16.15
2023-04-16T03:00:12.226Z,12.30
2023-04-16T03:02:40.076Z,13.93
2023-04-16T03:05:09.942Z,16.05
2023-04-16T03:07:39.133Z,13.75
2023-04-16T03:10:07.441Z,13.75
2023-04-16T03:12:35.127Z,12.40
2023-04-16T03:15:03.291Z,13.35
2023-04-16T03:17:31.342Z,14.32
2023-04-16T03:19:59.042Z,13.98
2023-04-16T03:22:28.121Z,14.63
2023-04-16T03:24:55.986Z,13.50
2023-04-16T03:27:23.650Z,13.52
2023-04-16T03:29:51.734Z,15.18
2023-04-16T03:32:19.673Z,16.20
2023-04-16T03:34:47.359Z,11.02
2023-04-16T03:37:15.161Z,12.80
2023-04-16T03:39:44.260Z,15.30
2023-04-16T03:42:13.401Z,15.43
2023-04-16T03:44:42.091Z,13.77
2023-04-16T03:47:10.530Z,12.35
2023-04-16T03:49:38.502Z,13.05
2023-04-16T03:52:07.178Z,16.38
2023-04-16T03:54:34.900Z,17.70
2023-04-16T03:57:15.957Z,20.35
2023-04-16T03:59:43.785Z,20.92
2023-04-16T04:02:11.633Z,16.23
2023-04-16T04:04:39.524Z,18.15
2023-04-16T04:07:07.515Z,15.95
2023-04-16T04:09:35.427Z,15.23
2023-04-16T04:12:04.369Z,16.13
2023-04-16T04:14:39.721Z,16.13
2023-04-16T04:17:08.357Z,18.40
2023-04-16T04:19:37.772Z,13.15
2023-04-16T04:22:07.023Z,17.75
2023-04-16T04:24:34.774Z,15.73
2023-04-16T04:27:02.896Z,16.73
2023-04-16T04:29:30.636Z,19.10
2023-04-16T04:31:59.932Z,17.70
2023-04-16T04:34:27.664Z,16.02
2023-04-16T04:36:58.168Z,17.63
2023-04-16T04:39:27.232Z,20.83
2023-04-16T04:41:55.069Z,17.95
2023-04-16T04:44:22.708Z,19.23
2023-04-16T04:46:50.561Z,21.55
2023-04-16T04:49:20.990Z,16.63
2023-04-16T04:51:49.443Z,19.92
2023-04-16T04:54:17.327Z,18.45
2023-04-16T04:56:45.752Z,16.17
2023-04-16T04:59:14.524Z,19.23
2023-04-16T05:01:42.877Z,28.77
2023-04-16T05:04:11.124Z,20.35
2023-04-16T05:06:40.567Z,17.00
2023-04-16T05:09:11.490Z,16.83
2023-04-16T05:11:39.425Z,20.40
2023-04-16T05:14:07.142Z,19.88
2023-04-16T05:16:37.386Z,20.80
2023-04-16T05:19:05.297Z,21.33
2023-04-16T05:21:33.041Z,19.52
2023-04-16T05:24:02.153Z,21.48
2023-04-16T05:26:29.864Z,18.77
2023-04-16T05:28:57.568Z,19.40
2023-04-16T05:31:25.307Z,18.77
2023-04-16T05:33:53.139Z,22.23
2023-04-16T05:36:20.810Z,20.13
2023-04-16T05:38:48.483Z,19.40
2023-04-16T05:41:17.585Z,18.27
2023-04-16T05:43:45.233Z,21.45
2023-04-16T05:46:13.029Z,18.70
2023-04-16T05:48:40.777Z,19.45
2023-04-16T05:51:08.451Z,21.23
2023-04-16T05:53:36.114Z,18.27
2023-04-16T05:56:03.940Z,19.13
2023-04-16T05:58:32.963Z,18.73
2023-04-16T06:01:01.070Z,19.52
2023-04-16T06:03:28.754Z,17.15
2023-04-16T06:05:56.930Z,16.95
2023-04-16T06:08:24.743Z,18.10
2023-04-16T06:10:52.426Z,18.65
2023-04-16T06:13:20.154Z,18.17
2023-04-16T06:15:49.265Z,18.23
2023-04-16T06:18:16.935Z,13.05
2023-04-16T06:20:48.300Z,15.13
2023-04-16T06:23:16.741Z,16.08
2023-04-16T06:25:44.503Z,15.20
2023-04-16T06:28:12.343Z,15.50
2023-04-16T06:30:40.107Z,21.92
2023-04-16T06:33:09.196Z,16.52
2023-04-16T06:35:36.845Z,18.42
2023-04-16T06:38:04.594Z,17.65
2023-04-16T06:40:32.327Z,17.65
2023-04-16T06:43:00.585Z,16.60
2023-04-16T06:45:28.374Z,18.08
2023-04-16T06:47:56.101Z,15.75
2023-04-16T06:50:26.463Z,18.35
2023-04-16T06:52:54.156Z,15.82
2023-04-16T06:55:21.932Z,19.40
2023-04-16T06:57:49.873Z,17.42
2023-04-16T07:00:17.741Z,18.70
2023-04-16T07:02:46.700Z,20.08
2023-04-16T07:05:14.505Z,21.23
2023-04-16T07:07:43.754Z,16.15
2023-04-16T07:10:11.948Z,19.95
2023-04-16T07:12:39.966Z,21.77
2023-04-16T07:15:08.763Z,18.63
2023-04-16T07:17:36.766Z,21.17
2023-04-16T07:20:04.866Z,21.08
2023-04-16T07:22:32.656Z,18.10
2023-04-16T07:25:01.812Z,23.23
2023-04-16T07:27:29.567Z,25.23
2023-04-16T07:29:57.216Z,23.77
2023-04-16T07:32:25.251Z,23.85
2023-04-16T07:34:53.127Z,24.58
2023-04-16T07:37:21.029Z,22.02
2023-04-16T07:39:48.701Z,26.10
2023-04-16T07:42:17.775Z,19.88
2023-04-16T07:44:45.528Z,24.10
2023-04-16T07:47:13.299Z,21.67
2023-04-16T07:49:41.216Z,22.63
2023-04-16T07:52:09.028Z,23.10
2023-04-16T07:54:36.738Z,23.15
2023-04-16T07:57:04.407Z,24.77
2023-04-16T07:59:33.529Z,27.90
2023-04-16T08:02:01.712Z,28.38
2023-04-16T08:04:29.596Z,25.17
2023-04-16T08:06:57.395Z,21.60
2023-04-16T08:09:28.215Z,27.23
2023-04-16T08:11:56.125Z,25.75
2023-04-16T08:14:23.823Z,29.08
2023-04-16T08:16:53.051Z,26.27
2023-04-16T08:19:20.772Z,25.40
2023-04-16T08:21:48.521Z,28.95
2023-04-16T08:24:16.253Z,23.92
2023-04-16T08:26:43.957Z,25.77
2023-04-16T08:29:11.909Z,24.52
2023-04-16T08:31:39.730Z,24.95
2023-04-16T08:34:11.339Z,22.92
2023-04-16T08:36:39.079Z,21.00
2023-04-16T08:39:06.987Z,23.77
2023-04-16T08:41:36.177Z,25.10
2023-04-16T08:44:08.570Z,24.30
2023-04-16T08:46:37.676Z,24.17
2023-04-16T08:49:06.865Z,24.05
2023-04-16T08:51:36.506Z,21.08
2023-04-16T08:54:05.227Z,19.75
2023-04-16T08:56:36.954Z,21.35
2023-04-16T08:59:05.710Z,23.55
2023-04-16T09:01:34.044Z,22.40
2023-04-16T09:04:02.451Z,23.67
2023-04-16T09:06:31.339Z,22.17
2023-04-16T09:09:00.492Z,20.23
2023-04-16T09:11:28.438Z,21.17
2023-04-16T09:13:57.582Z,22.05
2023-04-16T09:16:27.743Z,20.20
2023-04-16T09:18:57.132Z,23.92
2023-04-16T09:21:27.050Z,19.92
2023-04-16T09:23:56.830Z,20.55
2023-04-16T09:26:28.866Z,19.13
2023-04-16T09:28:58.637Z,19.33
2023-04-16T09:31:28.368Z,24.92
2023-04-16T09:34:03.323Z,22.52
2023-04-16T09:36:31.282Z,19.58
2023-04-16T09:38:59.477Z,21.98
2023-04-16T09:41:29.404Z,19.50
2023-04-16T09:43:58.332Z,17.92
2023-04-16T09:46:26.784Z,19.50
2023-04-16T09:48:54.576Z,18.17
2023-04-16T09:51:22.298Z,20.52
2023-04-16T09:53:52.681Z,19.27
2023-04-16T09:56:24.382Z,20.25
2023-04-16T09:58:57.139Z,20.42
2023-04-16T10:01:25.012Z,23.00
2023-04-16T10:03:54.702Z,25.38
2023-04-16T10:06:23.353Z,22.95
2023-04-16T10:08:51.456Z,21.60
2023-04-16T10:11:19.789Z,23.15
2023-04-16T10:13:47.443Z,18.63
2023-04-16T10:16:16.689Z,19.67
2023-04-16T10:18:45.564Z,22.13
2023-04-16T10:21:13.972Z,20.48
2023-04-16T10:23:42.211Z,20.17
2023-04-16T10:26:09.942Z,22.88
2023-04-16T10:28:37.922Z,21.98
2023-04-16T10:31:07.222Z,20.42
2023-04-16T10:33:37.707Z,21.20
2023-04-16T10:36:09.125Z,19.58
2023-04-16T10:38:39.638Z,23.45
2023-04-16T10:41:07.619Z,21.60
2023-04-16T10:43:39.628Z,22.27
2023-04-16T10:46:20.561Z,20.02
2023-04-16T10:48:50.810Z,22.20
2023-04-16T10:51:26.032Z,22.63
2023-04-16T10:53:54.888Z,20.70
2023-04-16T10:56:26.180Z,22.92
2023-04-16T10:58:54.363Z,22.60
2023-04-16T11:01:27.510Z,22.35
2023-04-16T11:03:56.833Z,20.60
2023-04-16T11:06:26.088Z,19.27
2023-04-16T11:08:54.981Z,19.67
2023-04-16T11:11:23.475Z,18.13
2023-04-16T11:13:54.604Z,19.77
2023-04-16T11:16:22.555Z,18.10
2023-04-16T11:18:51.591Z,19.05
2023-04-16T11:21:21.156Z,19.08
2023-04-16T11:23:49.716Z,19.10
2023-04-16T11:26:27.385Z,20.27
2023-04-16T11:28:55.496Z,19.15
2023-04-16T11:31:24.234Z,21.35
2023-04-16T11:33:51.954Z,21.05
2023-04-16T11:36:21.029Z,17.88
2023-04-16T11:38:48.804Z,21.98
2023-04-16T11:41:21.803Z,24.20
2023-04-16T11:43:49.716Z,21.80
2023-04-16T11:46:26.890Z,20.17
2023-04-16T11:48:56.191Z,23.45
2023-04-16T11:51:25.426Z,19.73
2023-04-16T11:53:53.864Z,21.73
2023-04-16T11:56:28.519Z,20.70
2023-04-16T11:59:09.472Z,20.50
2023-04-16T12:01:37.800Z,21.13
2023-04-16T12:04:06.278Z,18.67
2023-04-16T12:06:35.655Z,19.15
2023-04-16T12:09:18.264Z,19.58
2023-04-16T12:11:46.536Z,21.48
2023-04-16T12:14:14.270Z,22.40
2023-04-16T12:16:42.078Z,22.63
2023-04-16T12:19:12.218Z,24.42
2023-04-16T12:21:42.782Z,22.52
2023-04-16T12:24:11.394Z,23.52
2023-04-16T12:26:40.030Z,20.63
2023-04-16T12:29:17.797Z,18.85
2023-04-16T12:31:45.511Z,21.52
2023-04-16T12:34:15.003Z,19.58
2023-04-16T12:36:44.470Z,19.73
2023-04-16T12:39:12.743Z,20.35
2023-04-16T12:41:41.054Z,21.35
2023-04-16T12:44:12.024Z,19.77
2023-04-16T12:46:41.337Z,21.20
2023-04-16T12:49:09.790Z,20.15
2023-04-16T12:51:38.113Z,21.02
2023-04-16T12:54:08.350Z,21.02
2023-04-16T12:56:36.607Z,22.33
2023-04-16T12:59:04.945Z,20.00
2023-04-16T13:01:34.373Z,19.83
2023-04-16T13:04:02.205Z,21.65
2023-04-16T13:06:31.415Z,25.77
2023-04-16T13:08:59.130Z,21.45
2023-04-16T13:11:28.464Z,22.23
2023-04-16T13:13:56.168Z,22.13
2023-04-16T13:16:24.043Z,24.98
2023-04-16T13:18:52.051Z,22.55
2023-04-16T13:21:19.716Z,23.70
2023-04-16T13:23:47.973Z,22.42
2023-04-16T13:26:16.312Z,22.92
2023-04-16T13:28:45.397Z,25.95
2023-04-16T13:31:13.108Z,25.08
2023-04-16T13:33:40.981Z,23.52
2023-04-16T13:36:08.738Z,21.98
2023-04-16T13:38:36.507Z,24.77
2023-04-16T13:41:04.640Z,24.17
2023-04-16T13:43:32.649Z,21.42
2023-04-16T13:46:01.908Z,26.20
2023-04-16T13:48:29.757Z,32.38
2023-04-16T13:50:57.473Z,24.27
2023-04-16T13:53:25.164Z,26.10
2023-04-16T13:55:52.884Z,30.85
2023-04-16T13:58:20.855Z,26.50
2023-04-16T14:00:48.570Z,20.20
2023-04-16T14:03:17.698Z,20.42
2023-04-16T14:05:45.509Z,21.70
2023-04-16T14:08:14.770Z,24.50
2023-04-16T14:10:42.467Z,21.55
2023-04-16T14:13:10.402Z,20.52
2023-04-16T14:15:38.090Z,19.63
2023-04-16T14:18:06.096Z,20.90
2023-04-16T14:20:35.169Z,21.35
2023-04-16T14:23:03.474Z,22.02
2023-04-16T14:25:31.590Z,23.83
2023-04-16T14:27:59.895Z,23.48
2023-04-16T14:30:27.617Z,21.88
2023-04-16T14:32:55.413Z,22.35
2023-04-16T14:35:24.026Z,23.90
2023-04-16T14:37:53.331Z,19.65
2023-04-16T14:40:21.057Z,29.77
2023-04-16T14:42:48.690Z,23.20
2023-04-16T14:45:16.533Z,23.27
2023-04-16T14:47:47.575Z,25.25
2023-04-16T14:50:15.650Z,23.77
2023-04-16T14:52:43.390Z,26.60
2023-04-16T14:55:12.411Z,22.17
2023-04-16T14:57:41.469Z,24.00
2023-04-16T15:00:10.499Z,24.38
2023-04-16T15:02:38.720Z,26.08
2023-04-16T15:05:07.857Z,22.45
2023-04-16T15:07:36.760Z,24.33
2023-04-16T15:10:04.925Z,23.88
2023-04-16T15:12:34.280Z,24.38
2023-04-16T15:15:02.070Z,25.83
2023-04-16T15:17:30.000Z,22.67
2023-04-16T15:19:57.717Z,23.25
2023-04-16T15:22:25.405Z,24.33
2023-04-16T15:24:54.094Z,22.63
2023-04-16T15:27:21.860Z,27.33
2023-04-16T15:29:51.019Z,25.10
2023-04-16T15:32:18.686Z,24.05
2023-04-16T15:34:46.569Z,24.30
2023-04-16T15:37:14.288Z,26.63
2023-04-16T15:39:41.986Z,23.65
2023-04-16T15:42:11.172Z,27.35
2023-04-16T15:44:38.838Z,25.70
2023-04-16T15:47:08.536Z,27.48
2023-04-16T15:49:36.341Z,27.48
2023-04-16T15:52:04.372Z,28.65
2023-04-16T15:54:32.236Z,25.25
2023-04-16T15:57:00.067Z,23.65
2023-04-16T15:59:27.862Z,24.55
2023-04-16T16:01:55.824Z,23.23
2023-04-16T16:04:26.546Z,23.65
2023-04-16T16:06:54.764Z,25.90
2023-04-16T16:09:26.245Z,27.67
2023-04-16T16:11:54.357Z,27.25
2023-04-16T16:14:22.766Z,23.85
2023-04-16T16:16:50.646Z,27.05
2023-04-16T16:19:18.351Z,28.52
2023-04-16T16:21:47.419Z,24.80
2023-04-16T16:24:15.552Z,28.83
2023-04-16T16:26:43.269Z,26.63
2023-04-16T16:29:11.285Z,29.73
2023-04-16T16:31:39.511Z,27.20
2023-04-16T16:34:07.171Z,28.17
2023-04-16T16:36:36.751Z,27.38
2023-04-16T16:39:06.631Z,27.80
2023-04-16T16:41:37.588Z,27.42
2023-04-16T16:44:05.492Z,30.52
2023-04-16T16:49:28.390Z,26.77
2023-04-16T16:51:56.246Z,27.23
2023-04-16T16:54:25.412Z,27.58
2023-04-16T16:56:53.446Z,27.23
2023-04-16T16:59:21.111Z,25.20
2023-04-16T17:01:48.880Z,25.52
2023-04-16T17:04:19.484Z,22.58
2023-04-16T17:06:47.970Z,30.33
2023-04-16T17:09:15.736Z,27.95
2023-04-16T17:11:44.749Z,25.90
2023-04-16T17:14:12.478Z,27.00
2023-04-16T17:16:40.248Z,29.50
2023-04-16T17:19:08.052Z,28.80
2023-04-16T17:21:35.709Z,23.90
2023-04-16T17:24:03.364Z,26.52
2023-04-16T17:26:31.821Z,26.58
2023-04-16T17:29:01.120Z,25.20
2023-04-16T17:31:28.899Z,26.10
2023-04-16T17:33:56.620Z,27.92
2023-04-16T17:36:25.397Z,29.10
2023-04-16T17:38:53.067Z,24.58
2023-04-16T17:41:21.022Z,27.42
2023-04-16T17:43:48.949Z,26.25
2023-04-16T17:46:18.155Z,29.63
2023-04-16T17:48:47.912Z,28.65
2023-04-16T17:51:16.739Z,24.15
2023-04-16T17:53:44.770Z,27.02
2023-04-16T17:56:12.804Z,26.80
2023-04-16T17:58:40.456Z,26.00
2023-04-16T18:01:08.337Z,23.92
2023-04-16T18:03:38.397Z,25.48
2023-04-16T18:06:06.602Z,26.75
2023-04-16T18:08:36.541Z,22.50
2023-04-16T18:11:07.043Z,23.60
2023-04-16T18:13:34.736Z,21.27
2023-04-16T18:16:02.541Z,21.23
2023-04-16T18:18:30.488Z,21.02
2023-04-16T18:20:59.532Z,23.08
2023-04-16T18:23:27.292Z,19.95
2023-04-16T18:25:55.022Z,24.95
2023-04-16T18:28:22.717Z,20.48
2023-04-16T18:30:50.485Z,21.58
2023-04-16T18:35:49.789Z,19.20
2023-04-16T18:38:18.862Z,19.90
2023-04-16T18:40:46.942Z,20.33
2023-04-16T18:43:14.670Z,22.27
2023-04-16T18:45:42.484Z,19.50
2023-04-16T18:48:10.199Z,19.35
2023-04-16T18:50:37.828Z,23.58
2023-04-16T18:53:05.521Z,21.85
2023-04-16T18:55:34.577Z,22.63
2023-04-16T18:58:02.335Z,19.38
2023-04-16T19:00:30.092Z,19.98
2023-04-16T19:02:57.857Z,20.45
2023-04-16T19:05:25.548Z,20.38
2023-04-16T19:07:53.282Z,20.77
2023-04-16T19:10:20.974Z,23.80
2023-04-16T19:12:49.941Z,21.30
2023-04-16T19:15:17.933Z,26.00
2023-04-16T19:17:46.573Z,21.02
2023-04-16T19:20:15.261Z,19.63
2023-04-16T19:22:43.090Z,21.55
2023-04-16T19:25:11.116Z,19.17
2023-04-16T19:27:38.854Z,19.60
2023-04-16T19:30:08.832Z,20.70
2023-04-16T19:32:36.654Z,20.10
2023-04-16T19:35:04.548Z,21.50
2023-04-16T19:37:32.336Z,21.20
2023-04-16T19:40:01.775Z,22.67
2023-04-16T19:42:29.803Z,25.13
2023-04-16T19:44:57.620Z,22.90
2023-04-16T19:47:27.312Z,23.75
2023-04-16T19:49:55.060Z,24.25
2023-04-16T19:52:22.749Z,25.38
2023-04-16T19:54:50.472Z,21.10
2023-04-16T19:57:18.143Z,23.38
2023-04-16T19:59:45.899Z,23.40
2023-04-16T20:02:13.695Z,24.08
2023-04-16T20:04:42.793Z,26.00
2023-04-16T20:07:10.514Z,24.15
2023-04-16T20:09:38.302Z,24.77
2023-04-16T20:12:06.231Z,23.90
2023-04-16T20:14:33.998Z,21.08
2023-04-16T20:17:02.589Z,21.92
2023-04-16T20:19:33.664Z,21.23
2023-04-16T20:22:02.808Z,24.58
2023-04-16T20:24:31.279Z,19.15
2023-04-16T20:26:58.981Z,20.23
2023-04-16T20:29:27.024Z,18.65
2023-04-16T20:31:54.722Z,22.35
2023-04-16T20:34:22.667Z,23.83
2023-04-16T20:36:50.492Z,21.42
2023-04-16T20:39:20.306Z,21.75
2023-04-16T20:41:56.706Z,22.83
2023-04-16T20:44:26.417Z,20.75
2023-04-16T20:46:55.014Z,25.90
2023-04-16T20:49:22.753Z,23.10
2023-04-16T20:51:50.776Z,25.92
2023-04-16T20:54:19.859Z,23.95
2023-04-16T20:56:47.501Z,21.60
2023-04-16T20:59:15.524Z,21.88
2023-04-16T21:01:43.263Z,22.42
2023-04-16T21:04:11.264Z,20.83
2023-04-16T21:06:42.967Z,26.65
2023-04-16T21:09:10.918Z,23.42
2023-04-16T21:11:40.108Z,24.08
2023-04-16T21:14:07.895Z,21.45
2023-04-16T21:16:35.755Z,23.63
2023-04-16T21:19:04.388Z,21.08
2023-04-16T21:21:32.499Z,20.70
2023-04-16T21:24:00.346Z,21.17
2023-04-16T21:26:28.023Z,21.38
2023-04-16T21:28:57.103Z,20.30
2023-04-16T21:31:24.824Z,22.13
2023-04-16T21:33:52.671Z,25.17
2023-04-16T21:36:20.519Z,21.52
2023-04-16T21:38:48.267Z,25.35
2023-04-16T21:41:16.417Z,24.67
2023-04-16T21:43:44.155Z,22.48
2023-04-16T21:46:13.364Z,25.23
2023-04-16T21:48:41.076Z,21.90
2023-04-16T21:51:10.071Z,21.92
2023-04-16T21:53:39.035Z,21.65
2023-04-16T21:56:07.356Z,22.73
2023-04-16T21:58:35.125Z,19.77
2023-04-16T22:01:02.902Z,21.20
2023-04-16T22:03:33.444Z,22.55
2023-04-16T22:06:01.856Z,23.08
2023-04-16T22:08:30.204Z,25.15
2023-04-16T22:10:59.117Z,25.02
2023-04-16T22:13:26.963Z,23.17
2023-04-16T22:15:55.757Z,25.92
2023-04-16T22:18:25.471Z,22.50
2023-04-16T22:20:55.653Z,24.08
2023-04-16T22:23:23.743Z,22.75
2023-04-16T22:25:51.857Z,21.58
2023-04-16T22:28:19.569Z,23.98
2023-04-16T22:30:47.239Z,20.92
2023-04-16T22:33:15.098Z,21.40
2023-04-16T22:35:42.902Z,19.73
2023-04-16T22:38:12.016Z,23.23
2023-04-16T22:40:39.763Z,23.90
2023-04-16T22:43:07.491Z,22.15
2023-04-16T22:45:35.741Z,19.30
2023-04-16T22:48:03.618Z,18.50
2023-04-16T22:50:32.080Z,20.02
2023-04-16T22:52:59.823Z,21.75
2023-04-16T22:55:28.924Z,20.30
2023-04-16T22:57:56.656Z,22.35
2023-04-16T23:00:24.906Z,22.10
2023-04-16T23:02:52.682Z,20.70
2023-04-16T23:05:20.573Z,20.75
2023-04-16T23:07:48.203Z,24.02
2023-04-16T23:10:15.925Z,20.65
2023-04-16T23:12:44.984Z,25.65
2023-04-16T23:15:12.704Z,20.52
2023-04-16T23:17:40.439Z,23.05
2023-04-16T23:20:10.012Z,19.83
2023-04-16T23:22:37.748Z,20.75
2023-04-16T23:25:05.886Z,21.50
2023-04-16T23:27:33.574Z,22.33
2023-04-16T23:30:02.697Z,20.00
2023-04-16T23:32:31.365Z,20.15
2023-04-16T23:34:59.105Z,21.23
2023-04-16T23:37:26.875Z,20.42
2023-04-16T23:39:54.575Z,21.80
2023-04-16T23:42:22.245Z,24.00
2023-04-16T23:44:49.986Z,18.55
2023-04-16T23:47:19.047Z,21.98
2023-04-16T23:49:46.850Z,22.35
2023-04-16T23:52:14.753Z,22.17
2023-04-16T23:54:42.499Z,20.67
2023-04-16T23:57:10.325Z,22.00
2023-04-16T23:59:38.073Z,21.05
